createdAt,value
2023-05-25T00:01:01.286Z,89.64
2023-05-25T00:01:48.497Z,89.74
2023-05-25T00:02:47.522Z,89.74
2023-05-25T00:03:47.486Z,89.74
2023-05-25T00:04:47.333Z,89.74
2023-05-25T00:05:47.311Z,89.84
2023-05-25T00:06:47.320Z,89.94
2023-05-25T00:07:47.330Z,90.05
2023-05-25T00:08:47.271Z,89.94
2023-05-25T00:09:47.292Z,89.94
2023-05-25T00:10:47.269Z,89.89
2023-05-25T00:11:47.255Z,89.98
2023-05-25T00:12:47.248Z,90.09
2023-05-25T00:13:47.220Z,90.19
2023-05-25T00:14:47.221Z,90.30
2023-05-25T00:15:47.190Z,90.30
2023-05-25T00:16:47.237Z,90.39
2023-05-25T00:17:47.233Z,90.39
2023-05-25T00:18:47.190Z,90.39
2023-05-25T00:19:47.185Z,90.39
2023-05-25T00:20:47.117Z,90.30
2023-05-25T00:21:47.148Z,90.39
2023-05-25T00:22:47.109Z,90.30
2023-05-25T00:23:47.116Z,90.09
2023-05-25T00:24:47.057Z,90.19
2023-05-25T00:25:47.265Z,90.30
2023-05-25T00:26:47.077Z,90.39
2023-05-25T00:27:47.030Z,90.60
2023-05-25T00:28:47.004Z,90.70
2023-05-25T00:29:47.014Z,90.70
2023-05-25T00:30:46.998Z,90.81
2023-05-25T00:31:47.019Z,90.70
2023-05-25T00:32:47.029Z,90.70
2023-05-25T00:33:46.982Z,90.50
2023-05-25T00:34:46.939Z,90.54
2023-05-25T00:35:47.051Z,90.44
2023-05-25T00:36:46.916Z,90.44
2023-05-25T00:37:46.952Z,90.54
2023-05-25T00:38:46.909Z,90.64
2023-05-25T00:39:46.944Z,90.75
2023-05-25T00:40:46.891Z,90.95
2023-05-25T00:41:46.863Z,90.95
2023-05-25T00:42:46.848Z,91.05
2023-05-25T00:43:46.837Z,91.05
2023-05-25T00:44:46.829Z,91.05
2023-05-25T00:45:46.822Z,91.05
2023-05-25T00:46:46.878Z,91.16
2023-05-25T00:47:46.915Z,91.26
2023-05-25T00:48:46.787Z,91.26
2023-05-25T00:49:46.776Z,91.16
2023-05-25T00:50:46.788Z,91.16
2023-05-25T00:51:46.778Z,91.16
2023-05-25T00:52:46.779Z,91.16
2023-05-25T00:53:46.709Z,91.16
2023-05-25T00:54:46.680Z,91.05
2023-05-25T00:55:46.702Z,91.05
2023-05-25T00:56:46.681Z,90.95
2023-05-25T00:57:46.685Z,90.84
2023-05-25T00:58:46.636Z,90.84
2023-05-25T00:59:46.628Z,90.84
2023-05-25T01:00:46.600Z,90.84
2023-05-25T01:01:46.699Z,90.95
2023-05-25T01:02:46.704Z,90.95
2023-05-25T01:03:46.781Z,90.95
2023-05-25T01:04:46.560Z,90.84
2023-05-25T01:05:46.555Z,90.75
2023-05-25T01:06:46.524Z,90.79
2023-05-25T01:07:46.521Z,90.79
2023-05-25T01:08:46.563Z,90.79
2023-05-25T01:09:46.514Z,90.79
2023-05-25T01:10:46.510Z,90.89
2023-05-25T01:11:46.503Z,90.99
2023-05-25T01:12:46.486Z,90.99
2023-05-25T01:13:46.542Z,90.99
2023-05-25T01:14:46.430Z,90.99
2023-05-25T01:15:46.421Z,90.99
2023-05-25T01:16:46.522Z,90.79
2023-05-25T01:17:46.452Z,90.79
2023-05-25T01:18:46.437Z,90.79
2023-05-25T01:19:54.831Z,90.99
2023-05-25T01:20:47.419Z,91.09
2023-05-25T01:21:46.385Z,91.09
2023-05-25T01:22:46.337Z,90.99
2023-05-25T01:23:46.356Z,90.99
2023-05-25T01:24:46.338Z,90.99
2023-05-25T01:25:46.517Z,90.99
2023-05-25T01:26:46.298Z,91.14
2023-05-25T01:27:46.292Z,90.99
2023-05-25T01:28:46.284Z,90.99
2023-05-25T01:29:46.278Z,90.99
2023-05-25T01:30:46.244Z,91.03
2023-05-25T01:31:46.301Z,91.14
2023-05-25T01:32:46.271Z,91.14
2023-05-25T01:33:46.205Z,91.03
2023-05-25T01:34:46.174Z,91.03
2023-05-25T01:35:46.302Z,91.14
2023-05-25T01:36:46.146Z,91.03
2023-05-25T01:37:46.163Z,91.14
2023-05-25T01:38:46.151Z,91.24
2023-05-25T01:39:46.149Z,91.35
2023-05-25T01:40:46.096Z,91.35
2023-05-25T01:41:46.086Z,91.35
2023-05-25T01:42:46.085Z,91.35
2023-05-25T01:43:46.116Z,91.35
2023-05-25T01:44:46.060Z,91.35
2023-05-25T01:45:46.357Z,91.35
2023-05-25T01:46:46.034Z,91.35
2023-05-25T01:47:46.024Z,91.24
2023-05-25T01:48:46.048Z,91.24
2023-05-25T01:49:45.964Z,91.14
2023-05-25T01:50:45.957Z,91.35
2023-05-25T01:51:46.011Z,91.44
2023-05-25T01:52:46.060Z,91.55
2023-05-25T01:53:45.935Z,91.75
2023-05-25T01:54:45.925Z,91.75
2023-05-25T01:55:45.980Z,91.75
2023-05-25T01:56:45.923Z,91.75
2023-05-25T01:57:45.889Z,91.75
2023-05-25T01:58:45.945Z,91.65
2023-05-25T01:59:45.847Z,91.55
2023-05-25T02:00:45.846Z,91.44
2023-05-25T02:01:45.856Z,91.55
2023-05-25T02:02:45.888Z,91.55
2023-05-25T02:03:45.840Z,91.55
2023-05-25T02:04:45.939Z,91.55
2023-05-25T02:05:46.040Z,91.59
2023-05-25T02:06:45.792Z,91.55
2023-05-25T02:07:45.759Z,91.69
2023-05-25T02:08:45.839Z,91.65
2023-05-25T02:09:45.751Z,91.55
2023-05-25T02:10:45.743Z,91.49
2023-05-25T02:11:45.716Z,91.49
2023-05-25T02:12:45.721Z,91.38
2023-05-25T02:13:45.706Z,91.18
2023-05-25T02:14:45.661Z,91.28
2023-05-25T02:15:45.972Z,91.28
2023-05-25T02:16:45.659Z,91.38
2023-05-25T02:17:45.649Z,91.38
2023-05-25T02:18:45.678Z,91.49
2023-05-25T02:19:45.616Z,91.49
2023-05-25T02:20:45.671Z,91.49
2023-05-25T02:21:45.561Z,91.38
2023-05-25T02:22:45.577Z,91.38
2023-05-25T02:23:45.527Z,91.49
2023-05-25T02:24:45.612Z,91.59
2023-05-25T02:25:45.811Z,91.49
2023-05-25T02:26:45.502Z,91.38
2023-05-25T02:27:45.471Z,91.28
2023-05-25T02:28:45.527Z,91.28
2023-05-25T02:29:45.502Z,91.28
2023-05-25T02:30:45.456Z,91.18
2023-05-25T02:31:45.486Z,91.28
2023-05-25T02:32:45.465Z,91.18
2023-05-25T02:33:45.429Z,91.18
2023-05-25T02:34:45.474Z,91.08
2023-05-25T02:35:45.512Z,91.08
2023-05-25T02:36:45.382Z,90.97
2023-05-25T02:37:45.397Z,91.02
2023-05-25T02:38:45.371Z,91.12
2023-05-25T02:39:45.382Z,91.33
2023-05-25T02:40:45.334Z,91.42
2023-05-25T02:41:45.340Z,91.53
2023-05-25T02:42:45.303Z,91.84
2023-05-25T02:43:45.309Z,92.04
2023-05-25T02:44:45.299Z,92.14
2023-05-25T02:45:45.505Z,92.25
2023-05-25T02:46:45.348Z,92.14
2023-05-25T02:47:45.303Z,92.04
2023-05-25T02:48:45.271Z,92.14
2023-05-25T02:49:45.276Z,92.04
2023-05-25T02:50:45.194Z,91.94
2023-05-25T02:51:45.196Z,91.94
2023-05-25T02:52:45.205Z,91.74
2023-05-25T02:53:45.170Z,91.74
2023-05-25T02:54:45.186Z,91.84
2023-05-25T02:55:45.368Z,91.74
2023-05-25T02:56:45.140Z,91.74
2023-05-25T02:57:45.128Z,91.74
2023-05-25T02:58:45.107Z,91.63
2023-05-25T02:59:45.148Z,91.63
2023-05-25T03:00:45.075Z,91.63
2023-05-25T03:01:45.058Z,91.67
2023-05-25T03:02:45.087Z,91.78
2023-05-25T03:03:45.025Z,91.88
2023-05-25T03:04:45.047Z,91.88
2023-05-25T03:05:45.154Z,92.08
2023-05-25T03:06:45.012Z,92.08
2023-05-25T03:07:44.986Z,92.19
2023-05-25T03:08:44.992Z,92.29
2023-05-25T03:09:44.962Z,92.29
2023-05-25T03:10:44.973Z,92.19
2023-05-25T03:11:44.985Z,92.19
2023-05-25T03:12:44.975Z,92.19
2023-05-25T03:13:44.918Z,92.29
2023-05-25T03:14:44.879Z,92.19
2023-05-25T03:15:45.136Z,92.19
2023-05-25T03:16:44.914Z,92.08
2023-05-25T03:17:44.916Z,92.19
2023-05-25T03:18:44.832Z,92.19
2023-05-25T03:19:44.897Z,92.19
2023-05-25T03:20:44.836Z,92.29
2023-05-25T03:21:44.811Z,92.25
2023-05-25T03:22:44.794Z,92.35
2023-05-25T03:23:44.765Z,92.35
2023-05-25T03:24:44.796Z,92.35
2023-05-25T03:25:45.167Z,92.35
2023-05-25T03:26:44.737Z,92.25
2023-05-25T03:27:44.717Z,92.35
2023-05-25T03:28:44.721Z,92.40
2023-05-25T03:29:44.710Z,92.50
2023-05-25T03:30:44.723Z,92.50
2023-05-25T03:31:44.727Z,92.60
2023-05-25T03:32:44.721Z,92.60
2023-05-25T03:33:44.638Z,92.50
2023-05-25T03:34:44.636Z,92.70
2023-05-25T03:35:44.746Z,92.66
2023-05-25T03:36:44.607Z,92.66
2023-05-25T03:37:44.599Z,92.76
2023-05-25T03:38:44.625Z,92.76
2023-05-25T03:39:44.556Z,92.76
2023-05-25T03:40:44.549Z,92.76
2023-05-25T03:41:44.561Z,92.76
2023-05-25T03:42:44.527Z,92.76
2023-05-25T03:43:44.512Z,92.66
2023-05-25T03:44:44.488Z,92.55
2023-05-25T03:45:44.744Z,92.55
2023-05-25T03:46:44.541Z,92.50
2023-05-25T03:47:44.483Z,92.60
2023-05-25T03:48:44.446Z,92.60
2023-05-25T03:49:44.420Z,92.66
2023-05-25T03:50:44.436Z,92.66
2023-05-25T03:51:44.396Z,92.66
2023-05-25T03:52:44.411Z,92.66
2023-05-25T03:53:44.365Z,92.66
2023-05-25T03:54:44.365Z,92.66
2023-05-25T03:55:44.518Z,92.66
2023-05-25T03:56:44.349Z,92.66
2023-05-25T03:57:44.329Z,92.76
2023-05-25T03:58:44.331Z,92.76
2023-05-25T03:59:44.302Z,92.86
2023-05-25T04:00:44.309Z,92.86
2023-05-25T04:01:44.286Z,92.86
2023-05-25T04:02:44.331Z,93.07
2023-05-25T04:03:44.538Z,93.27
2023-05-25T04:04:44.363Z,93.27
2023-05-25T04:05:44.439Z,93.27
2023-05-25T04:06:44.241Z,93.27
2023-05-25T04:07:44.209Z,93.27
2023-05-25T04:08:44.189Z,93.27
2023-05-25T04:09:44.173Z,93.38
2023-05-25T04:10:44.155Z,93.38
2023-05-25T04:11:44.148Z,93.38
2023-05-25T04:12:44.140Z,93.23
2023-05-25T04:13:44.132Z,93.33
2023-05-25T04:14:44.102Z,93.33
2023-05-25T04:15:44.368Z,93.33
2023-05-25T04:16:44.234Z,93.33
2023-05-25T04:17:44.111Z,93.44
2023-05-25T04:18:44.060Z,93.44
2023-05-25T04:19:44.026Z,93.44
2023-05-25T04:20:44.081Z,93.44
2023-05-25T04:21:44.010Z,93.44
2023-05-25T04:22:44.014Z,93.44
2023-05-25T04:23:43.986Z,93.54
2023-05-25T04:24:43.988Z,93.54
2023-05-25T04:25:44.141Z,93.54
2023-05-25T04:26:43.962Z,93.64
2023-05-25T04:27:43.938Z,93.64
2023-05-25T04:28:43.910Z,93.54
2023-05-25T04:29:43.900Z,93.64
2023-05-25T04:30:43.946Z,93.64
2023-05-25T04:31:43.925Z,93.64
2023-05-25T04:32:45.197Z,93.74
2023-05-25T04:33:43.870Z,93.74
2023-05-25T04:34:43.894Z,93.85
2023-05-25T04:35:44.096Z,93.85
2023-05-25T04:36:43.844Z,93.85
2023-05-25T04:37:43.789Z,93.85
2023-05-25T04:38:43.788Z,93.85
2023-05-25T04:39:43.798Z,93.85
2023-05-25T04:40:43.818Z,93.85
2023-05-25T04:41:43.813Z,93.85
2023-05-25T04:42:43.777Z,93.85
2023-05-25T04:43:52.652Z,93.80
2023-05-25T04:44:44.752Z,93.80
2023-05-25T04:45:43.996Z,93.80
2023-05-25T04:46:43.740Z,93.80
2023-05-25T04:47:43.695Z,93.80
2023-05-25T04:48:43.668Z,93.80
2023-05-25T04:49:43.665Z,93.80
2023-05-25T04:50:43.640Z,93.80
2023-05-25T04:51:43.658Z,93.90
2023-05-25T04:52:43.655Z,93.90
2023-05-25T04:53:43.623Z,93.90
2023-05-25T04:54:43.622Z,93.80
2023-05-25T04:55:43.815Z,94.01
2023-05-25T04:56:43.581Z,94.01
2023-05-25T04:57:43.580Z,94.01
2023-05-25T04:58:43.558Z,94.11
2023-05-25T04:59:43.511Z,94.21
2023-05-25T05:00:43.744Z,94.21
2023-05-25T05:01:43.518Z,94.21
2023-05-25T05:02:43.534Z,94.32
2023-05-25T05:03:43.561Z,94.17
2023-05-25T05:04:43.464Z,94.27
2023-05-25T05:05:43.706Z,94.27
2023-05-25T05:06:43.472Z,94.17
2023-05-25T05:07:43.422Z,94.27
2023-05-25T05:08:43.434Z,94.17
2023-05-25T05:09:43.436Z,94.27
2023-05-25T05:10:43.620Z,94.17
2023-05-25T05:11:43.393Z,94.12
2023-05-25T05:12:43.385Z,94.12
2023-05-25T05:13:43.326Z,94.12
2023-05-25T05:14:43.374Z,94.23
2023-05-25T05:15:43.526Z,94.02
2023-05-25T05:16:43.380Z,93.92
2023-05-25T05:17:43.350Z,93.92
2023-05-25T05:18:43.310Z,94.02
2023-05-25T05:19:43.283Z,94.12
2023-05-25T05:20:43.307Z,93.92
2023-05-25T05:21:43.248Z,93.92
2023-05-25T05:22:43.252Z,93.92
2023-05-25T05:23:43.202Z,93.92
2023-05-25T05:24:43.233Z,93.92
2023-05-25T05:25:43.652Z,93.92
2023-05-25T05:26:56.380Z,93.98
2023-05-25T05:27:44.176Z,93.98
2023-05-25T05:28:43.155Z,94.08
2023-05-25T05:29:43.155Z,94.18
2023-05-25T05:30:43.149Z,94.18
2023-05-25T05:31:43.203Z,94.29
2023-05-25T05:32:45.953Z,94.29
2023-05-25T05:33:43.112Z,94.29
2023-05-25T05:34:43.096Z,94.29
2023-05-25T05:35:43.244Z,94.39
2023-05-25T05:36:56.692Z,94.34
2023-05-25T05:37:44.056Z,94.34
2023-05-25T05:38:43.043Z,94.45
2023-05-25T05:39:42.999Z,94.45
2023-05-25T05:40:42.996Z,94.55
2023-05-25T05:41:42.968Z,94.55
2023-05-25T05:42:42.978Z,94.55
2023-05-25T05:43:42.974Z,94.55
2023-05-25T05:44:42.941Z,94.40
2023-05-25T05:45:43.242Z,94.30
2023-05-25T05:46:42.982Z,94.10
2023-05-25T05:47:42.953Z,93.99
2023-05-25T05:48:42.929Z,93.99
2023-05-25T05:49:42.882Z,93.89
2023-05-25T05:50:42.865Z,93.89
2023-05-25T05:51:42.892Z,93.89
2023-05-25T05:52:42.852Z,92.87
2023-05-25T05:53:42.854Z,92.56
2023-05-25T05:54:42.813Z,92.21
2023-05-25T05:55:43.068Z,92.01
2023-05-25T05:56:42.817Z,92.11
2023-05-25T05:57:42.764Z,91.60
2023-05-25T05:58:42.751Z,91.29
2023-05-25T05:59:42.773Z,91.39
2023-05-25T06:00:42.746Z,91.19
2023-05-25T06:01:42.801Z,90.84
2023-05-25T06:02:42.732Z,90.74
2023-05-25T06:03:42.702Z,90.23
2023-05-25T06:04:42.677Z,90.12
2023-05-25T06:05:42.957Z,90.02
2023-05-25T06:06:42.694Z,89.51
2023-05-25T06:07:42.653Z,89.41
2023-05-25T06:08:42.643Z,89.47
2023-05-25T06:09:42.648Z,89.47
2023-05-25T06:10:42.649Z,89.58
2023-05-25T06:11:42.628Z,89.47
2023-05-25T06:12:42.576Z,89.26
2023-05-25T06:13:42.943Z,88.76
2023-05-25T06:14:42.540Z,88.65
2023-05-25T06:15:43.014Z,88.76
2023-05-25T06:16:42.600Z,88.76
2023-05-25T06:17:42.561Z,88.82
2023-05-25T06:18:42.515Z,89.02
2023-05-25T06:19:42.491Z,89.02
2023-05-25T06:20:42.587Z,89.02
2023-05-25T06:21:42.500Z,88.31
2023-05-25T06:22:42.463Z,88.06
2023-05-25T06:23:42.471Z,87.85
2023-05-25T06:24:42.410Z,87.65
2023-05-25T06:25:42.586Z,87.85
2023-05-25T06:26:42.444Z,87.35
2023-05-25T06:27:42.428Z,87.20
2023-05-25T06:28:42.554Z,86.59
2023-05-25T06:29:42.381Z,86.49
2023-05-25T06:30:42.372Z,86.80
2023-05-25T06:31:42.390Z,85.88
2023-05-25T06:32:42.383Z,85.63
2023-05-25T06:33:42.311Z,85.22
2023-05-25T06:34:42.333Z,84.72
2023-05-25T06:35:42.646Z,84.20
2023-05-25T06:36:42.315Z,84.31
2023-05-25T06:37:42.284Z,84.06
2023-05-25T06:38:42.295Z,83.65
2023-05-25T06:39:42.225Z,83.86
2023-05-25T06:40:42.257Z,83.86
2023-05-25T06:41:42.236Z,83.51
2023-05-25T06:42:42.273Z,83.42
2023-05-25T06:43:42.207Z,83.31
2023-05-25T06:44:42.185Z,83.72
2023-05-25T06:45:42.366Z,83.78
2023-05-25T06:46:42.323Z,83.98
2023-05-25T06:47:42.195Z,84.09
2023-05-25T06:48:42.105Z,83.89
2023-05-25T06:49:42.127Z,84.29
2023-05-25T06:50:42.098Z,84.15
2023-05-25T06:51:42.083Z,84.15
2023-05-25T06:52:42.048Z,84.05
2023-05-25T06:53:42.078Z,83.84
2023-05-25T06:54:42.050Z,83.74
2023-05-25T06:55:42.221Z,83.84
2023-05-25T06:56:42.037Z,83.95
2023-05-25T06:57:41.997Z,83.44
2023-05-25T06:58:41.973Z,83.34
2023-05-25T06:59:42.025Z,82.82
2023-05-25T07:00:42.596Z,82.42
2023-05-25T07:01:41.997Z,82.52
2023-05-25T07:02:42.007Z,81.91
2023-05-25T07:03:41.976Z,81.60
2023-05-25T07:04:41.939Z,81.60
2023-05-25T07:05:41.985Z,81.81
2023-05-25T07:06:41.955Z,81.87
2023-05-25T07:07:41.920Z,82.18
2023-05-25T07:08:41.845Z,81.77
2023-05-25T07:09:41.872Z,81.87
2023-05-25T07:10:41.834Z,81.87
2023-05-25T07:11:41.857Z,81.93
2023-05-25T07:12:41.845Z,81.12
2023-05-25T07:13:41.890Z,81.23
2023-05-25T07:14:41.793Z,80.62
2023-05-25T07:15:42.023Z,80.92
2023-05-25T07:16:41.841Z,81.23
2023-05-25T07:17:41.853Z,81.12
2023-05-25T07:18:41.739Z,80.92
2023-05-25T07:19:41.742Z,81.73
2023-05-25T07:20:41.795Z,81.84
2023-05-25T07:21:41.722Z,82.00
2023-05-25T07:22:41.702Z,82.20
2023-05-25T07:23:41.702Z,80.68
2023-05-25T07:24:41.733Z,80.47
2023-05-25T07:25:41.728Z,81.29
2023-05-25T07:26:41.655Z,81.79
2023-05-25T07:27:41.673Z,80.78
2023-05-25T07:28:41.620Z,80.44
2023-05-25T07:29:41.664Z,80.13
2023-05-25T07:30:41.600Z,79.63
2023-05-25T07:31:41.605Z,79.63
2023-05-25T07:32:41.632Z,80.03
2023-05-25T07:33:41.560Z,79.52
2023-05-25T07:34:41.549Z,79.52
2023-05-25T07:35:41.518Z,80.10
2023-05-25T07:36:41.492Z,80.10
2023-05-25T07:37:41.502Z,78.67
2023-05-25T07:38:41.498Z,78.06
2023-05-25T07:39:41.480Z,78.37
2023-05-25T07:40:41.455Z,78.78
2023-05-25T07:41:41.449Z,79.28
2023-05-25T07:42:41.505Z,79.75
2023-05-25T07:43:41.427Z,78.74
2023-05-25T07:44:41.437Z,78.64
2023-05-25T07:45:41.407Z,78.44
2023-05-25T07:46:41.734Z,79.25
2023-05-25T07:47:41.423Z,79.65
2023-05-25T07:48:41.383Z,79.55
2023-05-25T07:49:41.345Z,78.03
2023-05-25T07:50:41.338Z,77.72
2023-05-25T07:51:41.362Z,77.72
2023-05-25T07:52:41.293Z,78.33
2023-05-25T07:53:41.301Z,78.33
2023-05-25T07:54:41.336Z,77.32
2023-05-25T07:55:41.304Z,77.22
2023-05-25T07:56:41.260Z,78.40
2023-05-25T07:57:41.247Z,77.08
2023-05-25T07:58:41.202Z,76.74
2023-05-25T07:59:41.190Z,76.54
2023-05-25T08:00:41.194Z,77.25
2023-05-25T08:01:41.172Z,76.80
2023-05-25T08:02:41.318Z,76.70
2023-05-25T08:04:42.302Z,75.76
2023-05-25T08:05:41.150Z,75.25
2023-05-25T08:06:41.121Z,75.96
2023-05-25T08:07:42.804Z,74.84
2023-05-25T08:08:41.086Z,75.04
2023-05-25T08:09:41.098Z,75.45
2023-05-25T08:10:41.046Z,74.95
2023-05-25T08:11:41.082Z,73.97
2023-05-25T08:12:48.867Z,75.18
2023-05-25T08:13:42.090Z,75.89
2023-05-25T08:14:41.016Z,76.26
2023-05-25T08:15:41.022Z,76.16
2023-05-25T08:16:41.005Z,76.36
2023-05-25T08:17:41.018Z,73.73
2023-05-25T08:18:40.963Z,74.24
2023-05-25T08:19:40.972Z,74.44
2023-05-25T08:20:40.956Z,74.71
2023-05-25T08:21:40.904Z,74.40
2023-05-25T08:22:40.925Z,73.59
2023-05-25T08:23:40.933Z,73.29
2023-05-25T08:24:40.902Z,72.48
2023-05-25T08:25:40.885Z,72.48
2023-05-25T08:26:53.824Z,71.57
2023-05-25T08:27:41.883Z,71.88
2023-05-25T08:28:40.807Z,72.14
2023-05-25T08:29:40.833Z,71.77
2023-05-25T08:30:40.849Z,71.88
2023-05-25T08:31:40.864Z,72.28
2023-05-25T08:32:40.853Z,71.97
2023-05-25T08:33:40.776Z,71.47
2023-05-25T08:34:40.780Z,70.29
2023-05-25T08:35:40.731Z,70.39
2023-05-25T08:36:40.729Z,70.59
2023-05-25T08:37:40.743Z,71.09
2023-05-25T08:38:40.691Z,71.44
2023-05-25T08:39:40.680Z,71.64
2023-05-25T08:40:40.727Z,71.94
2023-05-25T08:41:40.672Z,72.04
2023-05-25T08:42:40.684Z,71.84
2023-05-25T08:43:40.644Z,71.73
2023-05-25T08:44:40.607Z,71.13
2023-05-25T08:45:45.133Z,71.50
2023-05-25T08:46:41.608Z,71.60
2023-05-25T08:47:40.663Z,71.47
2023-05-25T08:48:42.707Z,70.96
2023-05-25T08:49:40.753Z,70.15
2023-05-25T08:50:40.537Z,70.86
2023-05-25T08:51:40.532Z,71.03
2023-05-25T08:52:40.513Z,71.03
2023-05-25T08:53:40.557Z,70.89
2023-05-25T08:54:40.504Z,70.39
2023-05-25T08:55:40.501Z,69.89
2023-05-25T08:56:40.457Z,69.75
2023-05-25T08:57:40.458Z,67.83
2023-05-25T08:58:40.466Z,68.13
2023-05-25T08:59:40.457Z,68.74
2023-05-25T09:00:40.379Z,68.40
2023-05-25T09:01:40.493Z,67.19
2023-05-25T09:02:40.436Z,67.02
2023-05-25T09:03:40.443Z,67.52
2023-05-25T09:04:40.370Z,67.90
2023-05-25T09:05:40.335Z,67.60
2023-05-25T09:06:40.350Z,66.52
2023-05-25T09:07:40.334Z,66.61
2023-05-25T09:08:40.304Z,67.52
2023-05-25T09:09:40.298Z,67.43
2023-05-25T09:10:40.309Z,67.72
2023-05-25T09:11:42.233Z,67.39
2023-05-25T09:12:41.061Z,67.69
2023-05-25T09:13:40.278Z,67.39
2023-05-25T09:14:40.228Z,67.49
2023-05-25T09:15:40.219Z,66.78
2023-05-25T09:16:40.324Z,65.88
2023-05-25T09:17:40.284Z,66.78
2023-05-25T09:18:40.209Z,66.89
2023-05-25T09:19:40.221Z,67.29
2023-05-25T09:20:40.256Z,67.69
2023-05-25T09:21:40.161Z,67.60
2023-05-25T09:22:40.125Z,67.49
2023-05-25T09:23:40.126Z,67.63
2023-05-25T09:24:40.218Z,68.54
2023-05-25T09:25:40.085Z,68.40
2023-05-25T09:26:40.062Z,68.91
2023-05-25T09:27:40.095Z,68.80
2023-05-25T09:28:40.098Z,69.42
2023-05-25T09:29:40.080Z,69.62
2023-05-25T09:30:40.020Z,69.31
2023-05-25T09:31:40.117Z,69.42
2023-05-25T09:32:40.006Z,69.21
2023-05-25T09:33:40.047Z,68.80
2023-05-25T09:34:39.979Z,67.90
2023-05-25T09:35:39.962Z,67.90
2023-05-25T09:36:40.037Z,67.80
2023-05-25T09:37:40.204Z,69.21
2023-05-25T09:38:40.052Z,70.22
2023-05-25T09:39:40.006Z,69.51
2023-05-25T09:40:39.882Z,68.20
2023-05-25T09:41:39.893Z,68.37
2023-05-25T09:42:39.908Z,67.56
2023-05-25T09:43:46.721Z,67.46
2023-05-25T09:44:40.828Z,67.86
2023-05-25T09:45:39.852Z,67.06
2023-05-25T09:46:39.846Z,67.90
2023-05-25T09:47:39.837Z,67.80
2023-05-25T09:48:39.843Z,68.51
2023-05-25T09:49:39.814Z,69.01
2023-05-25T09:50:39.760Z,69.42
2023-05-25T09:51:39.776Z,69.11
2023-05-25T09:52:39.788Z,68.67
2023-05-25T09:53:39.738Z,68.20
2023-05-25T09:54:39.721Z,67.69
2023-05-25T09:55:52.031Z,67.90
2023-05-25T09:56:40.700Z,66.99
2023-05-25T09:57:39.710Z,67.90
2023-05-25T09:58:39.662Z,68.40
2023-05-25T09:59:39.702Z,69.01
2023-05-25T10:00:39.648Z,68.60
2023-05-25T10:01:41.844Z,67.97
2023-05-25T10:02:39.694Z,68.07
2023-05-25T10:03:43.824Z,68.67
2023-05-25T10:04:40.690Z,69.38
2023-05-25T10:05:39.596Z,68.54
2023-05-25T10:06:39.570Z,67.63
2023-05-25T10:07:39.572Z,67.80
2023-05-25T10:08:39.567Z,66.79
2023-05-25T10:09:39.545Z,66.62
2023-05-25T10:10:39.493Z,66.52
2023-05-25T10:11:39.537Z,67.13
2023-05-25T10:12:39.473Z,68.74
2023-05-25T10:13:39.483Z,67.53
2023-05-25T10:14:39.484Z,66.62
2023-05-25T10:15:39.459Z,67.63
2023-05-25T10:16:39.464Z,67.83
2023-05-25T10:17:39.448Z,66.82
2023-05-25T10:18:39.441Z,67.19
2023-05-25T10:19:39.436Z,66.89
2023-05-25T10:20:39.449Z,66.22
2023-05-25T10:21:39.427Z,66.52
2023-05-25T10:22:39.352Z,67.43
2023-05-25T10:23:39.333Z,66.72
2023-05-25T10:24:39.335Z,67.13
2023-05-25T10:25:39.332Z,67.60
2023-05-25T10:26:39.332Z,67.70
2023-05-25T10:27:39.298Z,65.48
2023-05-25T10:28:39.401Z,66.69
2023-05-25T10:29:39.269Z,66.39
2023-05-25T10:30:39.257Z,66.99
2023-05-25T10:31:39.255Z,67.07
2023-05-25T10:32:39.254Z,66.08
2023-05-25T10:33:39.220Z,65.71
2023-05-25T10:34:39.268Z,65.95
2023-05-25T10:35:56.089Z,66.55
2023-05-25T10:36:40.202Z,66.75
2023-05-25T10:37:39.193Z,66.45
2023-05-25T10:38:39.187Z,66.45
2023-05-25T10:39:39.159Z,66.35
2023-05-25T10:40:39.185Z,66.55
2023-05-25T10:41:39.100Z,66.82
2023-05-25T10:42:39.147Z,67.63
2023-05-25T10:43:39.072Z,67.13
2023-05-25T10:44:39.083Z,67.10
2023-05-25T10:45:39.330Z,66.49
2023-05-25T10:46:39.084Z,65.65
2023-05-25T10:47:39.056Z,65.85
2023-05-25T10:48:39.046Z,66.05
2023-05-25T10:49:39.041Z,66.25
2023-05-25T10:50:39.026Z,65.25
2023-05-25T10:51:38.969Z,65.55
2023-05-25T10:52:39.000Z,64.64
2023-05-25T10:53:39.001Z,63.87
2023-05-25T10:54:38.989Z,64.17
2023-05-25T10:55:38.961Z,64.58
2023-05-25T10:56:38.960Z,64.87
2023-05-25T10:57:38.869Z,65.18
2023-05-25T10:58:38.892Z,65.28
2023-05-25T10:59:38.899Z,64.64
2023-05-25T11:00:38.951Z,65.05
2023-05-25T11:01:38.935Z,64.14
2023-05-25T11:02:38.859Z,63.67
2023-05-25T11:03:38.846Z,63.96
2023-05-25T11:04:38.916Z,64.87
2023-05-25T11:05:38.815Z,64.64
2023-05-25T11:06:38.782Z,64.84
2023-05-25T11:07:38.779Z,64.95
2023-05-25T11:08:38.787Z,64.04
2023-05-25T11:09:38.759Z,64.44
2023-05-25T11:10:38.769Z,64.07
2023-05-25T11:11:38.697Z,64.47
2023-05-25T11:12:38.695Z,64.17
2023-05-25T11:13:40.860Z,65.38
2023-05-25T11:14:38.670Z,65.38
2023-05-25T11:15:38.708Z,64.75
2023-05-25T11:16:38.748Z,65.35
2023-05-25T11:17:38.666Z,65.55
2023-05-25T11:18:38.633Z,64.54
2023-05-25T11:19:38.625Z,65.05
2023-05-25T11:20:38.666Z,64.14
2023-05-25T11:21:38.597Z,64.44
2023-05-25T11:22:38.586Z,64.24
2023-05-25T11:23:38.572Z,64.04
2023-05-25T11:24:38.589Z,64.34
2023-05-25T11:25:38.553Z,64.92
2023-05-25T11:26:38.568Z,65.52
2023-05-25T11:27:38.489Z,65.01
2023-05-25T11:28:38.539Z,64.11
2023-05-25T11:29:38.495Z,63.84
2023-05-25T11:30:38.558Z,63.73
2023-05-25T11:31:41.482Z,63.84
2023-05-25T11:32:39.537Z,64.07
2023-05-25T11:33:38.449Z,65.01
2023-05-25T11:34:38.478Z,65.38
2023-05-25T11:35:38.413Z,65.08
2023-05-25T11:36:38.403Z,65.18
2023-05-25T11:37:38.361Z,64.54
2023-05-25T11:38:38.391Z,65.05
2023-05-25T11:39:38.376Z,65.42
2023-05-25T11:40:40.334Z,65.22
2023-05-25T11:41:38.311Z,65.01
2023-05-25T11:42:38.338Z,64.41
2023-05-25T11:43:38.291Z,64.84
2023-05-25T11:44:38.299Z,65.01
2023-05-25T11:45:38.461Z,64.54
2023-05-25T11:46:38.340Z,64.44
2023-05-25T11:47:38.401Z,63.96
2023-05-25T11:48:38.256Z,65.41
2023-05-25T11:49:38.248Z,65.71
2023-05-25T11:50:38.256Z,65.75
2023-05-25T11:51:38.197Z,66.75
2023-05-25T11:52:38.219Z,66.05
2023-05-25T11:53:38.183Z,66.25
2023-05-25T11:54:38.198Z,66.75
2023-05-25T11:55:38.184Z,66.93
2023-05-25T11:56:38.167Z,66.62
2023-05-25T11:57:38.136Z,66.72
2023-05-25T11:58:38.126Z,65.51
2023-05-25T11:59:38.104Z,66.25
2023-05-25T12:00:38.084Z,65.44
2023-05-25T12:01:38.059Z,65.64
2023-05-25T12:02:38.191Z,65.95
2023-05-25T12:03:38.143Z,66.45
2023-05-25T12:04:38.230Z,66.75
2023-05-25T12:05:38.314Z,67.46
2023-05-25T12:06:38.078Z,66.35
2023-05-25T12:07:38.051Z,66.82
2023-05-25T12:08:38.019Z,64.94
2023-05-25T12:09:37.982Z,65.24
2023-05-25T12:10:37.967Z,65.44
2023-05-25T12:11:37.940Z,64.94
2023-05-25T12:12:37.967Z,65.34
2023-05-25T12:13:37.936Z,65.81
2023-05-25T12:14:37.904Z,66.32
2023-05-25T12:15:37.911Z,64.43
2023-05-25T12:16:37.935Z,64.33
2023-05-25T12:17:37.881Z,65.24
2023-05-25T12:18:37.884Z,65.04
2023-05-25T12:19:37.880Z,65.34
2023-05-25T12:20:37.954Z,64.84
2023-05-25T12:21:39.085Z,64.94
2023-05-25T12:22:37.840Z,65.84
2023-05-25T12:23:37.794Z,66.12
2023-05-25T12:24:37.833Z,65.41
2023-05-25T12:25:49.767Z,65.01
2023-05-25T12:26:38.737Z,64.67
2023-05-25T12:27:37.761Z,63.87
2023-05-25T12:28:37.791Z,64.37
2023-05-25T12:29:37.734Z,64.07
2023-05-25T12:30:37.790Z,64.47
2023-05-25T12:31:37.713Z,63.56
2023-05-25T12:32:37.763Z,64.17
2023-05-25T12:33:37.708Z,63.96
2023-05-25T12:34:37.700Z,63.96
2023-05-25T12:35:37.639Z,64.10
2023-05-25T12:36:37.725Z,64.67
2023-05-25T12:37:37.662Z,64.67
2023-05-25T12:38:37.643Z,64.37
2023-05-25T12:39:37.585Z,64.37
2023-05-25T12:40:37.673Z,63.87
2023-05-25T12:41:37.620Z,63.96
2023-05-25T12:42:37.599Z,63.79
2023-05-25T12:43:37.547Z,64.20
2023-05-25T12:44:37.579Z,64.40
2023-05-25T12:45:37.479Z,63.79
2023-05-25T12:46:37.549Z,63.59
2023-05-25T12:47:37.535Z,63.70
2023-05-25T12:48:37.568Z,63.59
2023-05-25T12:49:37.516Z,64.37
2023-05-25T12:50:37.596Z,64.27
2023-05-25T12:51:37.479Z,63.96
2023-05-25T12:52:37.463Z,63.76
2023-05-25T12:53:37.430Z,63.67